Time;durP1;ratioP1;P1;durP2;ratioP2;P2;SDS_P1;SDS_P2;PMS_P1;PMS_P2;Temp;Humidity;BMP_temperature;BMP_pressure;BME280_temperature;BME280_humidity;BME280_pressure;Samples;Min_cycle;Max_cycle;Signal;HPM_P1;HPM_P2
2022/01/31 00:00:55;;;;;;;18.20;4.05;;;;;;;;;;4911385;29;20396;-87
2022/01/31 00:03:21;;;;;;;27.05;4.78;;;;;;;;;;4928101;29;20082;-87
2022/01/31 00:05:50;;;;;;;17.73;4.32;;;;;;;;;;4928607;29;20450;-87
2022/01/31 00:08:23;;;;;;;24.67;5.25;;;;;;;;;;4928020;29;20150;-87
2022/01/31 00:10:49;;;;;;;27.30;5.00;;;;;;;;;;4913933;29;20114;-87
2022/01/31 00:13:33;;;;;;;26.83;4.53;;;;;;;;;;4957853;28;20499;-87
2022/01/31 00:16:03;;;;;;;22.08;4.40;;;;;;;;;;4929632;29;20054;-88
2022/01/31 00:18:29;;;;;;;35.40;6.93;;;;;;;;;;4903453;29;20420;-89
2022/01/31 00:21:04;;;;;;;25.98;5.90;;;;;;;;;;4947317;29;20046;-91
2022/01/31 00:23:31;;;;;;;26.40;6.20;;;;;;;;;;4904291;29;20055;-89
2022/01/31 00:25:57;;;;;;;17.02;4.38;;;;;;;;;;4927852;29;20133;-88
2022/01/31 00:28:23;;;;;;;32.20;6.13;;;;;;;;;;4948279;29;20043;-87
2022/01/31 00:30:55;;;;;;;26.85;6.10;;;;;;;;;;4935775;29;20046;-87
2022/01/31 00:33:21;;;;;;;27.42;6.03;;;;;;;;;;4939264;29;20040;-88
2022/01/31 00:35:47;;;;;;;27.90;5.80;;;;;;;;;;4941962;29;20123;-87
2022/01/31 00:38:13;;;;;;;30.65;7.28;;;;;;;;;;4931431;29;20039;-87
2022/01/31 00:40:41;;;;;;;24.00;6.03;;;;;;;;;;4947073;29;20126;-88
2022/01/31 00:43:26;;;;;;;21.50;6.50;;;;;;;;;;4940348;28;20055;-87
2022/01/31 00:46:02;;;;;;;37.13;7.40;;;;;;;;;;4947191;29;20194;-87
2022/01/31 00:48:30;;;;;;;30.95;5.75;;;;;;;;;;4918432;29;20499;-86
2022/01/31 00:50:56;;;;;;;30.65;6.80;;;;;;;;;;4927729;29;20440;-87
2022/01/31 00:53:22;;;;;;;23.45;5.95;;;;;;;;;;4928098;29;20039;-89
2022/01/31 00:55:54;;;;;;;21.48;6.05;;;;;;;;;;4946109;29;20122;-88
2022/01/31 00:58:30;;;;;;;27.30;6.78;;;;;;;;;;4944505;29;20086;-88
2022/01/31 01:00:56;;;;;;;25.95;5.63;;;;;;;;;;4945011;29;20110;-88
2022/01/31 01:03:22;;;;;;;20.15;4.88;;;;;;;;;;4913733;29;20051;-87
2022/01/31 01:05:48;;;;;;;25.55;6.40;;;;;;;;;;4929214;29;20058;-88
2022/01/31 01:08:14;;;;;;;20.65;5.15;;;;;;;;;;4921975;28;21003;-87
2022/01/31 01:10:43;;;;;;;21.33;5.70;;;;;;;;;;4927355;28;20131;-87
2022/01/31 01:13:09;;;;;;;29.88;6.25;;;;;;;;;;4946007;28;20146;-87
2022/01/31 01:15:47;;;;;;;19.20;5.32;;;;;;;;;;4936532;28;20035;-86
2022/01/31 01:18:13;;;;;;;25.27;6.68;;;;;;;;;;4952476;28;20197;-87
2022/01/31 01:20:52;;;;;;;28.20;6.55;;;;;;;;;;4956465;28;20043;-86
2022/01/31 01:23:21;;;;;;;26.98;6.40;;;;;;;;;;4952083;28;20058;-87
2022/01/31 01:25:53;;;;;;;17.40;6.10;;;;;;;;;;4972060;28;20043;-87
2022/01/31 01:28:26;;;;;;;30.25;6.45;;;;;;;;;;4935971;28;20082;-86
2022/01/31 01:31:04;;;;;;;22.60;6.40;;;;;;;;;;4968888;28;20058;-87
2022/01/31 01:33:37;;;;;;;24.45;6.88;;;;;;;;;;4950586;28;20149;-88
2022/01/31 01:36:09;;;;;;;30.15;8.98;;;;;;;;;;4948894;28;20129;-89
2022/01/31 01:38:51;;;;;;;33.05;7.93;;;;;;;;;;4894349;29;20067;-89
2022/01/31 01:41:20;;;;;;;22.95;7.53;;;;;;;;;;4906153;29;20052;-88
2022/01/31 01:44:02;;;;;;;34.25;10.70;;;;;;;;;;4878011;29;20060;-88
2022/01/31 01:46:28;;;;;;;37.35;11.20;;;;;;;;;;4894354;29;20100;-90
2022/01/31 01:49:00;;;;;;;29.63;9.88;;;;;;;;;;4872716;29;20064;-92
2022/01/31 01:51:49;;;;;;;29.30;10.68;;;;;;;;;;4875984;29;20088;-93
2022/01/31 01:57:09;;;;;;;33.22;11.23;;;;;;;;;;4892368;29;20851;-93
2022/01/31 01:59:56;;;;;;;35.00;10.50;;;;;;;;;;4911987;29;20048;-92
2022/01/31 02:02:23;;;;;;;35.78;12.63;;;;;;;;;;4879047;29;20067;-92
2022/01/31 02:04:49;;;;;;;31.83;11.60;;;;;;;;;;4878582;29;20060;-90
2022/01/31 02:07:15;;;;;;;32.17;11.43;;;;;;;;;;4909824;29;20142;-91
2022/01/31 02:09:55;;;;;;;35.13;13.77;;;;;;;;;;4921305;28;20055;-94
2022/01/31 02:12:21;;;;;;;28.58;11.45;;;;;;;;;;4929522;28;20046;-90
2022/01/31 02:14:59;;;;;;;36.88;14.93;;;;;;;;;;4968362;28;20134;-94
2022/01/31 02:17:28;;;;;;;34.80;12.23;;;;;;;;;;4935707;28;20082;-93
2022/01/31 02:20:13;;;;;;;22.60;11.13;;;;;;;;;;4957807;28;20110;-91
2022/01/31 02:23:08;;;;;;;30.92;13.20;;;3.50;99.90;;;;;;5040057;23;20043;-91
2022/01/31 02:31:51;;;;;;;31.42;15.80;;;;;;;;;;4942936;23;20072;-93
2022/01/31 02:34:55;;;;;;;31.95;15.32;;;;;;;;;;4917990;29;20264;-90
2022/01/31 02:37:47;;;;;;;36.00;18.15;;;;;;;;;;4917315;29;20052;-90
2022/01/31 02:40:16;;;;;;;36.50;20.10;;;;;;;;;;4930555;29;20511;-90
2022/01/31 02:42:52;;;;;;;33.38;16.27;;;;;;;;;;4932042;29;20071;-90
2022/01/31 02:45:18;;;;;;;28.58;16.42;;;;;;;;;;4914330;29;20096;-92
2022/01/31 02:51:22;;;;;;;35.67;18.48;;;;;;;;;;4934279;28;20044;-91
2022/01/31 02:54:14;;;;;;;29.20;16.37;;;;;;;;;;4916629;29;20078;-91
2022/01/31 02:56:40;;;;;;;35.33;19.48;;;;;;;;;;4928007;29;20035;-90
2022/01/31 02:59:07;;;;;;;25.05;16.42;;;;;;;;;;4914684;29;20039;-90
2022/01/31 03:01:36;;;;;;;21.05;15.77;;;;;;;;;;4914385;29;20122;-91
2022/01/31 03:04:12;;;;;;;20.48;14.45;;;;;;;;;;4917153;29;20116;-93
2022/01/31 03:06:48;;;;;;;25.08;16.10;;;;;;;;;;4915835;29;20066;-91
2022/01/31 03:11:58;;;;;;;28.00;17.52;;;;;;;;;;4966078;28;20049;-91
2022/01/31 03:14:31;;;;;;;32.97;18.85;;;;;;;;;;4953096;28;20567;-91
2022/01/31 03:20:02;;;;;;;32.50;17.08;;;;;;;;;;4941869;28;20079;-92
2022/01/31 03:22:30;;;;;;;35.47;22.38;;;;;;;;;;4953215;28;20529;-91
2022/01/31 03:24:56;;;;;;;37.33;24.08;;;;;;;;;;4944315;28;20401;-90
2022/01/31 03:27:23;;;;;;;29.75;18.45;;;;;;;;;;4953121;28;20041;-92
2022/01/31 03:30:01;;;;;;;42.13;24.83;;;;;;;;;;4937279;28;20128;-90
2022/01/31 03:32:28;;;;;;;39.28;24.60;;;;;;;;;;4935211;28;20054;-90
2022/01/31 03:34:54;;;;;;;46.20;27.98;;;;;;;;;;4927876;28;20085;-91
2022/01/31 03:37:29;;;;;;;40.55;23.33;;;;;;;;;;4972891;28;20450;-91
2022/01/31 03:39:55;;;;;;;48.47;30.63;;;;;;;;;;4944971;28;20054;-91
2022/01/31 03:42:31;;;;;;;37.70;21.45;;;;;;;;;;4951457;28;20089;-91
2022/01/31 03:45:22;;;;;;;30.15;19.00;;;;;;;;;;4964611;23;20066;-92
2022/01/31 03:48:19;;;;;;;36.58;22.15;;;;;;;;;;4929163;29;20135;-92
2022/01/31 03:56:35;;;;;;;36.90;20.20;;;;;;;;;;3503624;23;20496;-93
2022/01/31 03:59:06;;;;;;;32.90;18.55;;;;;;;;;;4922152;29;20063;-92
2022/01/31 04:01:41;;;;;;;36.13;20.20;;;;;;;;;;4898761;29;20429;-94
2022/01/31 04:11:41;;;;;;;36.00;18.80;;;;;;;;;;4957848;28;20427;-95
2022/01/31 04:16:59;;;;;;;;;;;;;;;;;;;;;
2022/01/31 04:19:29;;;;;;;37.33;18.42;;;;;;;;;;4952618;28;20438;-93
2022/01/31 04:21:55;;;;;;;46.63;19.05;;;;;;;;;;4936288;28;20045;-93
2022/01/31 04:24:35;;;;;;;41.33;15.85;;;;;;;;;;4935367;28;20066;-93
2022/01/31 04:30:16;;;;;;;42.15;14.13;;;;;;;;;;4975518;23;20152;-92
2022/01/31 04:32:50;;;;;;;35.60;13.25;;;;;;;;;;4941143;28;20058;-93
2022/01/31 04:35:19;;;;;;;38.72;13.60;;;;;;;;;;4934389;28;20124;-95
2022/01/31 04:37:48;;;;;;;30.90;7.00;;;;;;;;;;4922821;28;20526;-94
2022/01/31 04:40:27;;;;;;;27.10;6.32;;;;;;;;;;4934995;28;22038;-91
2022/01/31 04:42:53;;;;;;;26.92;5.00;;;;;;;;;;4946417;28;20050;-92
2022/01/31 04:45:19;;;;;;;26.33;3.65;;;;;;;;;;4949041;28;20046;-92
2022/01/31 04:47:45;;;;;;;23.70;4.28;;;;;;;;;;4951092;28;20039;-91
2022/01/31 04:50:11;;;;;;;29.58;3.88;;;;;;;;;;4952708;28;20042;-92
2022/01/31 04:52:41;;;;;;;28.98;3.83;;;;;;;;;;4950615;28;20062;-91
2022/01/31 04:55:11;;;;;;;32.00;3.63;;;;;;;;;;4955413;28;20479;-91
2022/01/31 04:58:10;;;;;;;30.05;3.53;;;;;;;;;;4965382;28;20089;-91
2022/01/31 05:00:37;;;;;;;31.92;4.97;;;;;;;;;;4966026;28;20058;-90
2022/01/31 05:03:09;;;;;;;39.80;4.47;;;;;;;;;;4950930;28;20046;-91
2022/01/31 05:05:36;;;;;;;28.10;4.00;;;;;;;;;;4953074;28;20086;-91
2022/01/31 05:08:02;;;;;;;28.92;3.95;;;;;;;;;;4952294;28;20047;-91
2022/01/31 05:10:34;;;;;;;32.03;4.75;;;;;;;;;;4968953;28;20049;-90
2022/01/31 05:13:00;;;;;;;46.28;4.05;;;;;;;;;;4953852;28;20046;-90
2022/01/31 05:15:26;;;;;;;48.35;4.75;;;;;;;;;;4951128;28;20130;-90
2022/01/31 05:18:05;;;;;;;39.08;4.53;;;;;;;;;;4953283;28;20046;-92
2022/01/31 05:20:40;;;;;;;41.13;4.25;;;;;;;;;;4950072;28;20122;-91
2022/01/31 05:23:21;;;;;;;50.28;5.82;;;;;;;;;;4911074;29;20067;-91
2022/01/31 05:25:47;;;;;;;37.72;3.90;;;;;;;;;;4892040;29;20127;-90
2022/01/31 05:28:13;;;;;;;43.17;5.00;;;;;;;;;;4930287;28;20062;-93
2022/01/31 05:30:39;;;;;;;34.75;4.90;;;;;;;;;;4924564;28;20410;-91
2022/01/31 05:33:12;;;;;;;48.75;6.90;;;;;;;;;;4932988;29;20496;-92
2022/01/31 05:35:38;;;;;;;45.92;4.88;;;;;;;;;;4922212;23;20114;-92
2022/01/31 05:38:10;;;;;;;45.03;5.03;;;;;;;;;;4930981;29;20215;-91
2022/01/31 05:41:17;;;;;;;37.53;4.82;;;;;;;;;;4916795;29;20508;-90
2022/01/31 05:43:43;;;;;;;25.83;3.28;;;;;;;;;;4930588;29;20052;-91
2022/01/31 05:46:09;;;;;;;36.97;5.32;;;;;;;;;;4929925;29;20130;-91
2022/01/31 05:48:35;;;;;;;26.02;3.05;;;;;;;;;;4930736;29;20043;-90
2022/01/31 05:51:03;;;;;;;28.52;3.00;;;;;;;;;;4916754;29;20056;-90
2022/01/31 05:53:30;;;;;;;24.48;2.60;;;;;;;;;;4941111;29;20051;-85
2022/01/31 05:55:57;;;;;;;27.00;3.00;;;;;;;;;;4948599;29;20043;-86
2022/01/31 05:58:24;;;;;;;27.25;3.47;;;;;;;;;;4936582;29;20051;-87
2022/01/31 06:00:56;;;;;;;22.90;2.83;;;;;;;;;;4928918;29;20101;-85
2022/01/31 06:03:22;;;;;;;32.75;3.33;;;;;;;;;;4929483;29;20043;-85
2022/01/31 06:05:48;;;;;;;27.35;2.60;;;;;;;;;;4932751;29;20131;-85
2022/01/31 06:08:14;;;;;;;16.65;3.45;;;;;;;;;;4928757;29;20055;-87
2022/01/31 06:10:44;;;;;;;25.38;2.72;;;;;;;;;;4943163;28;20028;-83
2022/01/31 06:13:10;;;;;;;26.05;2.80;;;;;;;;;;4914264;29;20091;-83
2022/01/31 06:15:36;;;;;;;24.35;3.00;;;;;;;;;;4929135;29;20054;-84
2022/01/31 06:18:02;;;;;;;25.15;2.83;;;;;;;;;;4930575;29;20412;-83
2022/01/31 06:20:28;;;;;;;29.88;3.13;;;;;;;;;;4929189;29;20834;-85
2022/01/31 06:22:55;;;;;;;36.58;3.42;;;;;;;;;;4896638;29;20153;-85
2022/01/31 06:25:21;;;;;;;26.90;2.92;;;;;;;;;;4925552;29;20531;-85
2022/01/31 06:27:47;;;;;;;25.45;2.80;;;;;;;;;;4931300;29;20104;-82
2022/01/31 06:30:14;;;;;;;26.95;3.33;;;;;;;;;;4951475;29;20098;-85
2022/01/31 06:32:40;;;;;;;23.13;3.22;;;;;;;;;;4950372;29;20617;-81
2022/01/31 06:35:07;;;;;;;31.08;2.70;;;;;;;;;;4952204;28;20054;-84
2022/01/31 06:37:34;;;;;;;24.58;2.60;;;;;;;;;;4967074;28;20407;-83
2022/01/31 06:40:00;;;;;;;35.67;3.38;;;;;;;;;;4950001;28;20616;-85
2022/01/31 06:42:26;;;;;;;30.08;3.38;;;;;;;;;;4926417;29;20055;-86
2022/01/31 06:44:53;;;;;;;17.35;2.22;;;;;;;;;;4918478;28;20054;-85
2022/01/31 06:47:19;;;;;;;27.23;3.15;;;;;;;;;;4949048;28;20042;-83
2022/01/31 06:49:45;;;;;;;21.48;2.53;;;;;;;;;;4967123;28;20882;-85
2022/01/31 06:52:12;;;;;;;22.67;2.33;;;;;;;;;;4964902;28;20050;-82
2022/01/31 06:54:38;;;;;;;23.30;3.50;;;;;;;;;;4966250;28;20053;-82
2022/01/31 06:57:05;;;;;;;20.10;2.83;;;;;;;;;;4934152;28;20135;-83
2022/01/31 06:59:31;;;;;;;20.98;3.20;;;;;;;;;;4949702;28;20057;-85
2022/01/31 07:01:57;;;;;;;22.95;3.50;;;;;;;;;;4964979;28;20042;-84
2022/01/31 07:04:23;;;;;;;28.90;3.28;;;;;;;;;;4966198;28;20140;-85
2022/01/31 07:06:49;;;;;;;20.05;2.40;;;;;;;;;;4950705;28;20506;-84
2022/01/31 07:09:16;;;;;;;27.55;2.78;;;;;;;;;;4966532;28;20463;-84
2022/01/31 07:11:43;;;;;;;25.30;2.75;;;;;;;;;;4967873;28;20133;-83
2022/01/31 07:17:09;;;;;;;19.52;2.33;;;;;;;;;;4965768;28;20057;-86
2022/01/31 07:19:38;;;;;;;26.52;2.80;;;;;;;;;;4966161;28;20547;-84
2022/01/31 07:22:09;;;;;;;20.67;2.45;;;;;;;;;;4968292;28;20577;-86
2022/01/31 07:27:01;;;;;;;16.67;2.63;;;;;;;;;;4968200;28;20081;-86
2022/01/31 07:29:29;;;;;;;26.80;3.55;;;;;;;;;;4970422;28;20078;-84
2022/01/31 07:31:55;;;;;;;27.00;3.03;;;;;;;;;;4967576;28;20054;-86
2022/01/31 07:34:21;;;;;;;20.35;2.63;;;;;;;;;;4968070;28;20062;-85
2022/01/31 07:36:48;;;;;;;21.38;2.38;;;;;;;;;;4950688;28;20055;-87
2022/01/31 07:39:14;;;;;;;21.35;2.35;;;;;;;;;;4967304;28;20177;-85
2022/01/31 07:41:40;;;;;;;17.30;3.05;;;;;;;;;;4969389;28;20146;-85
2022/01/31 07:44:06;;;;;;;22.25;2.92;;;;;;;;;;4951922;28;20054;-86
2022/01/31 07:46:32;;;;;;;25.65;2.70;;;;;;;;;;4969413;28;20039;-85
2022/01/31 07:48:58;;;;;;;21.77;2.53;;;;;;;;;;4951699;28;20069;-86
2022/01/31 07:51:25;;;;;;;26.52;3.22;;;;;;;;;;4967181;28;20054;-85
2022/01/31 07:53:51;;;;;;;24.00;2.83;;;;;;;;;;4950868;28;20077;-86
2022/01/31 07:56:18;;;;;;;33.58;3.03;;;;;;;;;;4950405;28;20105;-87
2022/01/31 07:58:44;;;;;;;30.58;3.05;;;;;;;;;;4958785;28;20067;-86
2022/01/31 08:01:11;;;;;;;30.02;3.45;;;;;;;;;;4963212;28;20042;-86
2022/01/31 08:03:37;;;;;;;20.15;2.22;;;;;;;;;;4959585;28;20035;-86
2022/01/31 08:06:03;;;;;;;26.02;2.83;;;;;;;;;;4969657;28;20039;-87
2022/01/31 08:08:31;;;;;;;32.15;3.42;;;;;;;;;;4967288;28;20039;-84
2022/01/31 08:10:57;;;;;;;37.30;3.67;;;;;;;;;;4967541;28;20054;-85
2022/01/31 08:13:25;;;;;;;28.63;2.92;;;;;;;;;;4949977;28;20561;-85
2022/01/31 08:16:10;;;;;;;23.13;2.38;;;;;;;;;;4951007;28;20057;-85
2022/01/31 08:18:38;;;;;;;19.83;2.78;;;;;;;;;;4965520;28;20105;-86
2022/01/31 08:21:04;;;;;;;17.48;3.08;;;;;;;;;;4967408;28;20768;-85
2022/01/31 08:23:31;;;;;;;30.50;2.92;;;;;;;;;;4949118;28;20046;-85
2022/01/31 08:26:01;;;;;;;26.42;2.65;;;;;;;;;;4967781;28;20035;-86
2022/01/31 08:28:41;;;;;;;12.45;2.33;;;;;;;;;;4951250;28;20047;-87
2022/01/31 08:31:15;;;;;;;22.33;3.05;;;;;;;;;;4965678;28;20044;-83
2022/01/31 08:36:11;;;;;;;26.23;3.00;;;;;;;;;;4948713;28;20430;-82
2022/01/31 08:38:39;;;;;;;26.42;4.78;;;;;;;;;;4964880;28;20043;-86
2022/01/31 08:41:06;;;;;;;27.48;3.30;;;;;;;;;;4964872;28;20039;-85
2022/01/31 08:43:36;;;;;;;31.85;3.88;;;;;;;;;;4948970;28;20368;-85
2022/01/31 08:46:03;;;;;;;20.33;3.35;;;;;;;;;;4966301;28;20035;-87
2022/01/31 08:48:30;;;;;;;29.23;3.17;;;;;;;;;;4941049;28;20051;-86
2022/01/31 08:50:57;;;;;;;25.25;3.45;;;;;;;;;;4948927;28;20078;-86
2022/01/31 08:53:26;;;;;;;17.17;2.35;;;;;;;;;;4945512;28;20495;-85
2022/01/31 08:55:53;;;;;;;25.02;4.72;;;;;;;;;;4951170;28;20144;-85
2022/01/31 08:58:21;;;;;;;26.08;2.50;;;;;;;;;;4966221;28;20046;-87
2022/01/31 09:00:49;;;;;;;20.08;3.28;;;;;;;;;;4964151;28;20102;-87
2022/01/31 09:03:33;;;;;;;22.65;2.80;;;;;;;;;;4966734;28;20129;-87
2022/01/31 09:05:59;;;;;;;21.85;2.55;;;;;;;;;;4964728;28;20149;-87
2022/01/31 09:08:25;;;;;;;39.72;3.42;;;;;;;;;;4966192;28;20402;-86
2022/01/31 09:10:51;;;;;;;20.15;2.67;;;;;;;;;;4965506;28;20360;-84
2022/01/31 09:13:18;;;;;;;24.77;2.58;;;;;;;;;;4966533;28;20078;-84
2022/01/31 09:15:45;;;;;;;23.85;3.40;;;;;;;;;;4951993;28;20058;-85
2022/01/31 09:18:11;;;;;;;22.25;2.45;;;;;;;;;;4967309;28;20054;-86
2022/01/31 09:20:37;;;;;;;22.10;3.00;;;;;;;;;;4967769;28;21001;-85
2022/01/31 09:23:04;;;;;;;26.70;2.47;;;;;;;;;;4966605;28;20091;-85
2022/01/31 09:25:30;;;;;;;31.45;2.97;;;;;;;;;;4972722;28;20069;-86
2022/01/31 09:27:58;;;;;;;29.15;2.60;;;;;;;;;;4972043;28;20045;-86
2022/01/31 09:30:26;;;;;;;10.77;3.05;;;;;;;;;;4970189;28;20506;-86
2022/01/31 09:32:53;;;;;;;14.63;2.25;;;;;;;;;;4966473;28;20049;-87
2022/01/31 09:35:19;;;;;;;15.98;1.90;;;;;;;;;;4981051;28;20047;-86
2022/01/31 09:37:46;;;;;;;15.60;1.80;;;;;;;;;;4974751;28;20038;-87
2022/01/31 09:40:17;;;;;;;10.00;1.52;;;;;;;;;;4971542;28;20050;-85
2022/01/31 09:43:25;;;;;;;12.45;2.20;;;;;;;;;;4972436;28;20534;-86
2022/01/31 09:48:43;;;;;;;10.45;1.65;;;;;;;;;;4938534;28;20074;-85
2022/01/31 09:51:11;;;;;;;13.55;1.42;;;;;;;;;;4953398;28;20051;-83
2022/01/31 09:53:39;;;;;;;10.45;1.38;;;;;;;;;;4927446;28;20035;-85
2022/01/31 09:56:08;;;;;;;17.02;1.98;;;;;;;;;;4971353;28;20105;-85
2022/01/31 09:58:34;;;;;;;14.93;1.40;;;;;;;;;;4967915;28;20077;-84
2022/01/31 10:01:08;;;;;;;11.50;1.50;;;;;;;;;;4970377;28;20054;-83
2022/01/31 10:03:44;;;;;;;10.25;2.00;;;;;;;;;;4969080;28;20039;-87
2022/01/31 10:06:29;;;;;;;13.30;2.20;;;;;;;;;;4969857;28;20039;-84
2022/01/31 10:09:22;;;;;;;20.13;3.72;;;;;;;;;;4968332;28;20506;-86
2022/01/31 10:11:51;;;;;;;21.25;2.88;;;;;;;;;;4948202;28;20050;-86
2022/01/31 10:17:20;;;;;;;21.38;1.75;;;;;;;;;;4951594;28;20046;-86
2022/01/31 10:19:46;;;;;;;15.93;2.35;;;;;;;;;;4951558;28;20043;-84
2022/01/31 10:22:14;;;;;;;11.90;1.58;;;;;;;;;;4953626;28;20051;-84
2022/01/31 10:24:42;;;;;;;17.30;2.58;;;;;;;;;;4970184;28;21047;-86
2022/01/31 10:27:12;;;;;;;19.20;2.58;;;;;;;;;;4971437;28;20050;-86
2022/01/31 10:29:40;;;;;;;15.55;2.08;;;;;;;;;;4967949;28;20498;-86
2022/01/31 10:32:10;;;;;;;10.25;1.63;;;;;;;;;;4972480;28;20038;-86
2022/01/31 10:34:38;;;;;;;10.80;1.98;;;;;;;;;;4966460;28;20042;-86
2022/01/31 10:37:09;;;;;;;11.27;1.90;;;;;;;;;;4952434;28;20058;-84
2022/01/31 10:50:54;;;;;;;17.98;2.15;;;;;;;;;;4912457;28;20205;-85
2022/01/31 10:53:20;;;;;;;18.42;2.42;;;;;;;;;;4938969;28;20076;-86
2022/01/31 10:55:53;;;;;;;25.80;3.65;;;;;;;;;;4954599;28;20558;-86
2022/01/31 10:58:19;;;;;;;19.00;2.50;;;;;;;;;;4955052;28;20129;-84
2022/01/31 11:00:45;;;;;;;23.42;3.33;;;;;;;;;;4972922;28;20490;-87
2022/01/31 11:03:32;;;;;;;19.92;3.78;;;;;;;;;;4953438;28;20383;-84
2022/01/31 11:06:01;;;;;;;20.35;3.42;;;;;;;;;;4971231;28;20089;-83
2022/01/31 11:08:28;;;;;;;18.85;2.47;;;;;;;;;;4970636;28;20082;-85
2022/01/31 11:10:59;;;;;;;17.00;2.95;;;;;;;;;;4953688;28;20043;-86
2022/01/31 11:13:25;;;;;;;24.23;3.22;;;;;;;;;;4959354;28;20049;-83
2022/01/31 11:15:52;;;;;;;22.77;2.97;;;;;;;;;;4950176;29;20117;-83
2022/01/31 11:18:18;;;;;;;21.58;3.72;;;;;;;;;;4950826;29;20468;-86
2022/01/31 11:20:49;;;;;;;27.02;3.42;;;;;;;;;;4948204;28;20042;-84
2022/01/31 11:23:15;;;;;;;18.85;2.67;;;;;;;;;;4950715;29;20055;-83
2022/01/31 11:25:41;;;;;;;21.13;3.17;;;;;;;;;;4932346;29;20047;-87
2022/01/31 11:28:11;;;;;;;23.83;3.75;;;;;;;;;;4957850;28;20094;-86
2022/01/31 11:30:37;;;;;;;23.65;3.80;;;;;;;;;;4982596;28;20043;-86
2022/01/31 11:33:03;;;;;;;27.52;3.58;;;;;;;;;;4951375;28;20391;-86
2022/01/31 11:35:29;;;;;;;32.58;3.80;;;;;;;;;;4951835;28;20093;-86
2022/01/31 11:37:56;;;;;;;24.33;3.20;;;;;;;;;;4950676;28;20043;-84
2022/01/31 11:40:22;;;;;;;30.02;3.47;;;;;;;;;;4949240;28;20051;-84
2022/01/31 11:42:49;;;;;;;29.58;5.38;;;;;;;;;;4942603;28;20234;-84
2022/01/31 11:45:18;;;;;;;24.55;3.45;;;;;;;;;;4952302;28;20046;-81
2022/01/31 11:47:48;;;;;;;23.02;3.28;;;;;;;;;;4967801;28;20518;-85
2022/01/31 11:50:14;;;;;;;23.83;3.13;;;;;;;;;;4938435;29;20050;-84
2022/01/31 11:52:47;;;;;;;24.83;4.32;;;;;;;;;;4947023;28;20042;-86
2022/01/31 11:55:14;;;;;;;25.08;4.07;;;;;;;;;;4949799;28;20050;-82
2022/01/31 11:57:40;;;;;;;22.20;3.10;;;;;;;;;;4950339;28;20376;-84
2022/01/31 12:00:08;;;;;;;19.40;2.90;;;;;;;;;;4966667;28;20049;-86
2022/01/31 12:02:42;;;;;;;23.35;3.17;;;;;;;;;;4949975;28;20057;-87
2022/01/31 12:05:09;;;;;;;22.40;3.35;;;;;;;;;;4967114;28;20093;-82
2022/01/31 12:07:41;;;;;;;21.38;3.38;;;;;;;;;;4949635;28;20045;-85
2022/01/31 12:10:09;;;;;;;20.83;2.95;;;;;;;;;;4967161;28;20070;-85
2022/01/31 12:12:50;;;;;;;28.77;3.90;;;;;;;;;;4966003;28;20588;-84
2022/01/31 12:15:45;;;;;;;25.20;4.15;;;;;;;;;;4947583;28;20038;-84
2022/01/31 12:23:39;;;;;;;19.70;3.33;;;;;;;;;;4943211;28;20074;-81
2022/01/31 12:26:24;;;;;;;26.85;3.50;;;;;;;;;;4965983;28;20117;-84
2022/01/31 12:29:09;;;;;;;30.33;4.93;;;;;;;;;;4968003;28;20050;-83
2022/01/31 12:31:35;;;;;;;24.80;3.95;;;;;;;;;;4949166;28;20047;-85
2022/01/31 12:34:02;;;;;;;30.70;3.75;;;;;;;;;;4966713;28;20153;-84
2022/01/31 12:36:37;;;;;;;24.10;3.85;;;;;;;;;;4966886;28;20075;-86
2022/01/31 12:39:04;;;;;;;30.02;4.20;;;;;;;;;;4967172;28;20497;-86
2022/01/31 12:41:32;;;;;;;26.23;3.55;;;;;;;;;;4968490;28;20043;-86
2022/01/31 12:44:17;;;;;;;24.05;3.40;;;;;;;;;;4948915;28;20058;-87
2022/01/31 12:46:50;;;;;;;19.58;3.20;;;;;;;;;;4966677;28;20458;-84
2022/01/31 12:49:22;;;;;;;35.90;4.10;;;;;;;;;;4965077;28;20049;-84
2022/01/31 12:51:55;;;;;;;31.17;3.40;;;;;;;;;;4949143;28;20061;-86
2022/01/31 12:54:22;;;;;;;32.38;4.35;;;;;;;;;;4964644;28;20050;-84
2022/01/31 12:56:48;;;;;;;22.20;3.38;;;;;;;;;;4963744;28;20070;-85
2022/01/31 12:59:16;;;;;;;28.67;3.60;;;;;;;;;;4949919;28;20046;-83
2022/01/31 13:01:51;;;;;;;34.92;4.07;;;;;;;;;;4965403;28;20078;-86
2022/01/31 13:04:22;;;;;;;35.15;4.10;;;;;;;;;;4965412;28;20042;-84
2022/01/31 13:06:51;;;;;;;28.77;3.63;;;;;;;;;;4966890;28;20047;-84
2022/01/31 13:09:17;;;;;;;28.45;4.45;;;;;;;;;;4951760;28;20046;-86
2022/01/31 13:11:47;;;;;;;38.25;3.83;;;;;;;;;;4953628;28;20047;-86
2022/01/31 13:14:15;;;;;;;25.13;3.85;;;;;;;;;;4953705;28;20089;-85
2022/01/31 13:16:46;;;;;;;38.58;4.82;;;;;;;;;;4979549;28;20082;-85
2022/01/31 13:19:13;;;;;;;14.57;1.90;;;;;;;;;;4977378;28;20533;-83
2022/01/31 13:21:39;;;;;;;11.10;1.55;;;;;;;;;;4971149;28;20030;-85
2022/01/31 13:24:05;;;;;;;5.80;1.13;;;;;;;;;;4969917;28;20376;-83
2022/01/31 13:26:46;;;;;;;7.22;1.08;;;;;;;;;;4969639;28;20031;-86
2022/01/31 13:29:12;;;;;;;7.85;1.17;;;;;;;;;;4970595;28;20485;-83
2022/01/31 13:31:42;;;;;;;11.07;1.77;;;;;;;;;;4968643;28;20038;-86
2022/01/31 13:34:08;;;;;;;11.55;1.13;;;;;;;;;;4968102;28;20149;-85
2022/01/31 13:36:37;;;;;;;6.90;1.08;;;;;;;;;;4968482;28;20054;-86
2022/01/31 13:39:03;;;;;;;9.95;1.10;;;;;;;;;;4968608;28;20475;-85
2022/01/31 13:41:29;;;;;;;9.90;1.60;;;;;;;;;;4966645;28;20046;-86
2022/01/31 13:44:01;;;;;;;11.52;1.85;;;;;;;;;;4955665;28;20514;-86
2022/01/31 13:46:30;;;;;;;14.00;4.93;;;;;;;;;;4954563;28;20078;-86
2022/01/31 13:49:19;;;;;;;34.72;8.45;;;;;;;;;;4970258;28;20050;-86
2022/01/31 13:51:47;;;;;;;26.17;7.30;;;;;;;;;;4970998;28;20122;-85
2022/01/31 13:54:18;;;;;;;29.15;8.65;;;;;;;;;;4969204;28;20051;-86
2022/01/31 13:56:48;;;;;;;23.15;8.00;;;;;;;;;;4968694;28;20506;-87
2022/01/31 13:59:16;;;;;;;24.02;8.05;;;;;;;;;;4967786;28;20042;-86
2022/01/31 14:01:42;;;;;;;22.50;8.55;;;;;;;;;;4950536;28;20058;-86
2022/01/31 14:04:10;;;;;;;27.00;8.60;;;;;;;;;;4955467;28;20055;-85
2022/01/31 14:06:36;;;;;;;21.15;8.57;;;;;;;;;;4950149;28;20055;-83
2022/01/31 14:09:07;;;;;;;23.45;8.68;;;;;;;;;;4967085;28;20039;-85
2022/01/31 14:11:36;;;;;;;18.15;7.70;;;;;;;;;;4952987;28;20054;-85
2022/01/31 14:14:02;;;;;;;20.00;8.57;;;;;;;;;;4967239;28;20051;-85
2022/01/31 14:16:28;;;;;;;20.38;8.18;;;;;;;;;;4968791;28;20039;-87
2022/01/31 14:18:56;;;;;;;21.35;9.52;;;;;;;;;;4951904;28;20130;-82
2022/01/31 14:21:23;;;;;;;31.05;8.88;;;;;;;;;;4966598;28;20046;-86
2022/01/31 14:23:51;;;;;;;20.00;8.82;;;;;;;;;;4968443;28;20042;-85
2022/01/31 14:26:21;;;;;;;23.05;8.13;;;;;;;;;;4966264;28;20039;-84
2022/01/31 14:28:49;;;;;;;19.23;8.27;;;;;;;;;;4970904;28;20074;-84
2022/01/31 14:31:27;;;;;;;19.58;8.20;;;;;;;;;;4967181;28;20051;-86
2022/01/31 14:33:53;;;;;;;14.38;7.85;;;;;;;;;;4966386;28;20141;-85
2022/01/31 14:36:21;;;;;;;24.70;9.23;;;;;;;;;;4970002;28;20047;-82
2022/01/31 14:39:28;;;;;;;18.33;7.30;;;;;;;;;;4970294;28;20046;-87
2022/01/31 14:47:20;;;;;;;14.63;8.48;;;;;;;;;;4966941;28;20043;-85
2022/01/31 14:49:48;;;;;;;18.10;9.27;;;;;;;;;;4965527;28;20043;-83
2022/01/31 14:52:14;;;;;;;15.07;7.85;;;;;;;;;;4974442;28;20105;-86
2022/01/31 14:54:41;;;;;;;13.52;7.50;;;;;;;;;;4968587;28;20138;-86
2022/01/31 14:57:08;;;;;;;12.60;7.40;;;;;;;;;;4972135;28;20063;-87
2022/01/31 14:59:34;;;;;;;12.88;6.18;;;;;;;;;;4970132;28;20050;-87
2022/01/31 15:02:00;;;;;;;17.52;8.65;;;;;;;;;;4967276;28;20047;-86
2022/01/31 15:04:26;;;;;;;13.50;6.63;;;;;;;;;;4970278;28;20038;-86
2022/01/31 15:06:52;;;;;;;9.30;4.90;;;;;;;;;;4965670;28;20043;-85
2022/01/31 15:09:19;;;;;;;10.63;5.60;;;;;;;;;;4968966;28;20047;-86
2022/01/31 15:11:46;;;;;;;12.90;5.90;;;;;;;;;;4967052;28;20047;-84
2022/01/31 15:14:14;;;;;;;21.48;8.23;;;;;;;;;;4962437;28;20062;-84
2022/01/31 15:16:41;;;;;;;10.15;4.90;;;;;;;;;;4957980;28;20035;-85
2022/01/31 15:19:07;;;;;;;9.32;4.68;;;;;;;;;;4968959;28;20045;-85
2022/01/31 15:21:34;;;;;;;10.68;4.95;;;;;;;;;;4972427;28;20039;-84
2022/01/31 15:24:01;;;;;;;7.82;4.32;;;;;;;;;;4974454;28;20039;-84
2022/01/31 15:26:27;;;;;;;8.95;4.10;;;;;;;;;;4972554;28;20042;-81
2022/01/31 15:28:53;;;;;;;9.75;3.50;;;;;;;;;;4967789;28;20125;-84
2022/01/31 15:31:20;;;;;;;12.20;4.47;;;;;;;;;;4948391;28;20030;-84
2022/01/31 15:33:47;;;;;;;11.38;4.22;;;;;;;;;;4964035;28;20129;-84
2022/01/31 15:36:14;;;;;;;10.55;4.40;;;;;;;;;;4963300;28;20054;-84
2022/01/31 15:38:40;;;;;;;11.05;4.80;;;;;;;;;;4966328;28;20078;-85
2022/01/31 15:41:08;;;;;;;11.48;4.68;;;;;;;;;;4967590;28;20035;-80
2022/01/31 15:43:35;;;;;;;19.90;5.57;;;;;;;;;;4966266;28;20046;-84
2022/01/31 15:46:01;;;;;;;8.48;5.15;;;;;;;;;;4949357;28;20051;-83
2022/01/31 15:48:28;;;;;;;8.02;5.18;;;;;;;;;;4965140;28;20066;-84
2022/01/31 15:50:54;;;;;;;8.73;4.68;;;;;;;;;;4966273;28;20510;-85
2022/01/31 15:53:20;;;;;;;14.40;6.50;;;;;;;;;;4966348;28;20042;-84
2022/01/31 15:55:46;;;;;;;12.02;6.05;;;;;;;;;;4964187;28;20050;-83
2022/01/31 15:58:14;;;;;;;10.35;5.28;;;;;;;;;;4963329;28;20152;-84